Time;durP1;ratioP1;P1;durP2;ratioP2;P2;SDS_P1;SDS_P2;PMS_P1;PMS_P2;Temp;Humidity;BMP_temperature;BMP_pressure;BME280_temperature;BME280_humidity;BME280_pressure;Samples;Min_cycle;Max_cycle;Signal;HPM_P1;HPM_P2
2021/07/24 00:00:08;;;;;;;15.17;13.67;;;18.80;1.00;;;;;;5085368;27;20548;-77
2021/07/24 00:02:37;;;;;;;14.47;13.27;;;18.80;1.00;;;;;;5081413;27;21047;-77
2021/07/24 00:05:04;;;;;;;13.60;12.30;;;18.70;1.00;;;;;;5078749;27;20442;-77
2021/07/24 00:07:31;;;;;;;14.23;12.83;;;18.70;1.00;;;;;;5080295;27;20456;-77
2021/07/24 00:09:58;;;;;;;13.40;12.30;;;18.60;1.00;;;;;;5083023;27;20504;-77
2021/07/24 00:12:24;;;;;;;14.37;12.87;;;18.60;1.00;;;;;;5080925;27;20465;-77
2021/07/24 00:14:52;;;;;;;12.80;11.70;;;18.60;1.00;;;;;;5081736;27;21648;-77
2021/07/24 00:17:18;;;;;;;13.23;12.03;;;18.60;1.00;;;;;;5074869;27;20480;-77
2021/07/24 00:19:46;;;;;;;13.00;11.70;;;18.60;1.00;;;;;;5079130;27;20472;-77
2021/07/24 00:22:13;;;;;;;14.70;13.40;;;18.60;1.00;;;;;;5079802;27;21310;-77
2021/07/24 00:24:40;;;;;;;12.40;11.30;;;18.50;1.00;;;;;;5083252;27;20476;-77
2021/07/24 00:27:08;;;;;;;13.60;12.30;;;18.50;1.00;;;;;;5085991;27;21305;-76
2021/07/24 00:29:34;;;;;;;12.63;11.53;;;18.50;1.00;;;;;;5089510;27;20614;-77
2021/07/24 00:32:01;;;;;;;13.97;12.57;;;18.50;1.00;;;;;;5086645;27;20546;-77
2021/07/24 00:34:27;;;;;;;12.73;11.63;;;18.50;1.00;;;;;;5084525;27;20466;-76
2021/07/24 00:36:57;;;;;;;13.63;12.33;;;18.50;1.00;;;;;;5075204;27;20462;-76
2021/07/24 00:39:24;;;;;;;12.70;11.50;;;18.50;1.00;;;;;;5082084;27;20497;-77
2021/07/24 00:41:53;;;;;;;10.30;9.40;;;18.50;1.00;;;;;;5080262;27;21196;-76
2021/07/24 00:44:23;;;;;;;12.63;11.43;;;18.40;1.00;;;;;;5080398;27;21508;-76
2021/07/24 00:46:51;;;;;;;12.73;11.63;;;18.40;1.00;;;;;;5078636;27;20476;-77
2021/07/24 00:49:21;;;;;;;12.10;11.10;;;18.40;1.00;;;;;;5085493;27;20457;-77
2021/07/24 00:51:53;;;;;;;11.63;10.53;;;18.40;1.00;;;;;;5081082;27;20933;-77
2021/07/24 00:54:21;;;;;;;12.60;10.90;;;18.40;1.00;;;;;;5077885;27;20457;-77
2021/07/24 00:56:51;;;;;;;11.83;10.83;;;18.40;1.00;;;;;;5061862;27;20458;-76
2021/07/24 00:59:17;;;;;;;11.47;10.43;;;18.40;1.00;;;;;;5065652;27;21026;-77
2021/07/24 01:01:46;;;;;;;11.43;10.43;;;18.40;1.00;;;;;;5082081;27;20447;-76
2021/07/24 01:04:12;;;;;;;12.60;11.50;;;18.40;1.00;;;;;;5084106;27;21490;-77
2021/07/24 01:06:39;;;;;;;11.63;10.73;;;18.40;1.00;;;;;;5080626;27;20450;-76
2021/07/24 01:09:06;;;;;;;11.37;10.33;;;18.50;1.00;;;;;;5080982;27;20438;-76
2021/07/24 01:11:35;;;;;;;11.07;10.17;;;18.50;1.00;;;;;;5082289;27;21080;-76
2021/07/24 01:14:02;;;;;;;12.07;10.77;;;18.50;1.00;;;;;;5073063;27;21333;-76
2021/07/24 01:16:29;;;;;;;11.20;10.20;;;18.50;1.00;;;;;;5079003;27;21284;-76
2021/07/24 01:18:55;;;;;;;11.53;10.47;;;18.40;1.00;;;;;;5082809;27;20469;-76
2021/07/24 01:21:26;;;;;;;13.23;11.30;;;18.40;1.00;;;;;;5080802;27;20446;-76
2021/07/24 01:23:53;;;;;;;13.10;12.00;;;18.40;1.00;;;;;;5074867;27;20450;-76
2021/07/24 01:26:24;;;;;;;13.40;12.20;;;18.40;1.00;;;;;;5081879;27;20477;-77
2021/07/24 01:28:50;;;;;;;14.43;12.20;;;18.40;1.00;;;;;;5075784;27;20944;-77
2021/07/24 01:31:17;;;;;;;12.37;11.13;;;18.40;1.00;;;;;;5078055;27;20552;-77
2021/07/24 01:33:44;;;;;;;12.83;11.73;;;18.40;1.00;;;;;;5085091;27;20540;-77
2021/07/24 01:36:11;;;;;;;12.30;11.13;;;18.40;1.00;;;;;;5086940;27;20464;-77
2021/07/24 01:38:40;;;;;;;13.77;12.37;;;18.40;1.00;;;;;;5081155;27;20466;-77
2021/07/24 01:41:07;;;;;;;13.93;12.47;;;18.40;1.00;;;;;;5080746;27;20450;-77
2021/07/24 01:43:33;;;;;;;13.30;12.10;;;18.40;1.00;;;;;;5082169;27;20446;-77
2021/07/24 01:46:00;;;;;;;13.60;12.37;;;18.40;1.00;;;;;;5076245;27;20809;-77
2021/07/24 01:48:34;;;;;;;15.60;13.70;;;18.40;1.00;;;;;;5082541;27;20465;-77
2021/07/24 01:53:53;;;;;;;13.43;12.20;;;18.40;1.00;;;;;;5044894;27;20974;-77
2021/07/24 01:56:23;;;;;;;14.90;13.50;;;18.50;1.00;;;;;;5076825;27;20928;-77
2021/07/24 01:58:50;;;;;;;14.40;12.90;;;18.40;1.00;;;;;;5079270;27;20476;-78
2021/07/24 02:01:19;;;;;;;12.87;11.73;;;18.40;1.00;;;;;;5077960;27;20449;-78
2021/07/24 02:03:47;;;;;;;14.60;13.20;;;18.40;1.00;;;;;;5080969;27;20446;-77
2021/07/24 02:06:16;;;;;;;14.87;13.57;;;18.40;1.00;;;;;;5060929;27;20957;-77
2021/07/24 02:08:46;;;;;;;14.43;13.07;;;18.40;1.00;;;;;;5077860;27;20454;-77
2021/07/24 02:11:14;;;;;;;16.43;13.73;;;18.30;1.00;;;;;;5081368;27;20465;-78
2021/07/24 02:13:41;;;;;;;15.77;14.37;;;18.30;1.00;;;;;;5079175;27;20858;-77
2021/07/24 02:16:09;;;;;;;19.60;15.43;;;18.30;1.00;;;;;;5082405;27;20453;-77
2021/07/24 02:18:37;;;;;;;14.60;13.33;;;18.30;1.00;;;;;;5086301;27;20446;-77
2021/07/24 02:21:05;;;;;;;16.00;14.47;;;18.30;1.00;;;;;;5083231;27;21018;-76
2021/07/24 02:23:31;;;;;;;15.80;14.27;;;18.30;1.00;;;;;;5083788;27;21169;-77
2021/07/24 02:25:58;;;;;;;15.13;13.83;;;18.30;1.00;;;;;;5080279;27;20445;-76
2021/07/24 02:28:26;;;;;;;15.67;14.07;;;18.30;1.00;;;;;;5081350;27;20461;-76
2021/07/24 02:30:53;;;;;;;14.87;13.57;;;18.30;1.00;;;;;;5082985;27;20945;-76
2021/07/24 02:33:20;;;;;;;16.80;15.20;;;18.20;1.00;;;;;;5084128;27;20445;-76
2021/07/24 02:35:49;;;;;;;15.80;14.40;;;18.20;1.00;;;;;;5085995;27;21377;-76
2021/07/24 02:38:16;;;;;;;17.03;15.23;;;18.20;1.00;;;;;;5080974;27;20527;-76
2021/07/24 02:40:43;;;;;;;16.67;15.13;;;18.20;1.00;;;;;;5083114;27;20883;-76
2021/07/24 02:43:09;;;;;;;17.27;15.67;;;18.20;1.00;;;;;;5089627;27;20442;-75
2021/07/24 02:45:37;;;;;;;18.43;16.83;;;18.20;1.00;;;;;;5087015;27;20470;-76
2021/07/24 02:48:05;;;;;;;18.63;16.80;;;18.20;1.00;;;;;;5081992;27;20529;-77
2021/07/24 02:50:31;;;;;;;18.23;16.53;;;18.20;1.00;;;;;;5079061;27;20481;-76
2021/07/24 02:52:58;;;;;;;16.90;15.30;;;18.10;1.00;;;;;;5078374;27;20464;-77
2021/07/24 02:55:24;;;;;;;18.77;16.77;;;18.10;1.00;;;;;;5077921;27;21130;-77
2021/07/24 02:57:51;;;;;;;17.20;15.60;;;18.10;1.00;;;;;;5079976;27;20458;-77
2021/07/24 03:00:18;;;;;;;18.03;16.30;;;18.10;1.00;;;;;;5084217;27;20476;-77
2021/07/24 03:02:46;;;;;;;18.47;16.70;;;18.10;1.00;;;;;;5081949;27;20469;-77
2021/07/24 03:05:14;;;;;;;17.50;15.70;;;18.10;1.00;;;;;;5086159;27;20450;-77
2021/07/24 03:07:41;;;;;;;18.77;16.87;;;18.10;1.00;;;;;;5081812;27;20450;-77
2021/07/24 03:10:09;;;;;;;18.90;17.00;;;18.00;1.00;;;;;;5080818;27;20687;-76
2021/07/24 03:12:36;;;;;;;19.70;17.60;;;18.00;1.00;;;;;;5079088;27;20457;-76
2021/07/24 03:15:02;;;;;;;18.23;16.53;;;18.00;1.00;;;;;;5083430;27;20661;-76
2021/07/24 03:17:31;;;;;;;21.77;18.30;;;18.00;1.00;;;;;;5078229;27;20449;-77
2021/07/24 03:19:59;;;;;;;19.53;17.70;;;18.00;1.00;;;;;;5082331;27;21149;-76
2021/07/24 03:22:26;;;;;;;19.23;17.43;;;18.00;1.00;;;;;;5058167;27;21256;-76
2021/07/24 03:24:56;;;;;;;20.47;18.57;;;18.00;1.00;;;;;;5080658;27;20454;-77
2021/07/24 03:27:23;;;;;;;19.83;17.83;;;18.00;1.00;;;;;;5087826;27;20457;-76
2021/07/24 03:29:50;;;;;;;19.30;17.50;;;18.00;1.00;;;;;;5089576;27;20458;-76
2021/07/24 03:32:17;;;;;;;19.43;17.73;;;18.00;1.00;;;;;;5083656;27;20684;-77
2021/07/24 03:34:43;;;;;;;19.40;17.40;;;18.00;1.00;;;;;;5085661;27;21443;-76
2021/07/24 03:37:11;;;;;;;19.90;17.90;;;17.90;1.00;;;;;;5081620;27;21204;-76
2021/07/24 03:39:38;;;;;;;20.20;18.37;;;18.00;1.00;;;;;;5108171;22;20481;-71
2021/07/24 03:42:05;;;;;;;19.00;17.20;;;18.00;1.00;;;;;;5090659;27;20963;-71
2021/07/24 03:44:31;;;;;;;20.27;18.33;;;18.00;1.00;;;;;;5088573;27;20461;-72
2021/07/24 03:46:58;;;;;;;20.50;18.40;;;18.00;1.00;;;;;;5087916;27;20434;-72
2021/07/24 03:49:24;;;;;;;21.07;18.87;;;18.00;1.00;;;;;;5089595;27;20470;-75
2021/07/24 03:51:51;;;;;;;20.33;18.30;;;18.00;1.00;;;;;;5089445;27;20897;-72
2021/07/24 03:54:19;;;;;;;18.60;16.70;;;18.00;1.00;;;;;;5090039;27;20445;-72
2021/07/24 03:56:46;;;;;;;18.90;17.07;;;18.00;1.00;;;;;;5087278;27;20453;-72
2021/07/24 03:59:12;;;;;;;20.37;18.30;;;18.00;1.00;;;;;;5090024;28;20465;-72
2021/07/24 04:01:40;;;;;;;20.27;18.47;;;18.00;1.00;;;;;;5089382;27;20810;-72
2021/07/24 04:04:07;;;;;;;19.77;17.87;;;18.00;1.00;;;;;;5089791;27;20515;-72
2021/07/24 04:06:34;;;;;;;21.00;18.97;;;18.00;1.00;;;;;;5085861;27;20878;-72
2021/07/24 04:09:05;;;;;;;21.77;19.50;;;18.00;1.00;;;;;;5087662;27;20465;-72
2021/07/24 04:11:35;;;;;;;20.17;18.23;;;18.10;1.00;;;;;;5089960;27;20461;-73
2021/07/24 04:14:13;;;;;;;20.97;18.90;;;18.20;1.00;;;;;;5083294;27;20450;-73
2021/07/24 04:16:41;;;;;;;19.87;17.97;;;18.20;1.00;;;;;;5089921;28;21395;-73
2021/07/24 04:19:07;;;;;;;19.27;17.37;;;18.20;1.00;;;;;;5087966;27;20482;-73
2021/07/24 04:21:34;;;;;;;18.77;16.97;;;18.20;1.00;;;;;;5088007;27;20464;-73
2021/07/24 04:24:01;;;;;;;23.23;18.10;;;18.20;1.00;;;;;;5088794;27;20677;-72
2021/07/24 04:26:27;;;;;;;20.47;18.40;;;18.20;1.00;;;;;;5083781;27;20460;-73
2021/07/24 04:28:55;;;;;;;21.13;19.03;;;18.30;1.00;;;;;;5086960;28;20701;-73
2021/07/24 04:31:22;;;;;;;21.73;18.93;;;18.30;1.00;;;;;;5089381;27;20453;-71
2021/07/24 04:33:48;;;;;;;19.77;17.63;;;18.30;1.00;;;;;;5087288;27;20461;-73
2021/07/24 04:36:15;;;;;;;20.47;18.33;;;18.40;1.00;;;;;;5086556;27;20442;-72
2021/07/24 04:38:42;;;;;;;21.10;18.97;;;18.40;1.00;;;;;;5085117;27;20461;-73
2021/07/24 04:41:16;;;;;;;19.73;17.73;;;18.40;1.00;;;;;;5087228;27;20461;-73
2021/07/24 04:43:43;;;;;;;19.07;17.20;;;18.50;1.00;;;;;;5085286;27;20434;-73
2021/07/24 04:46:12;;;;;;;19.43;17.47;;;18.50;1.00;;;;;;5090077;28;20446;-73
2021/07/24 04:48:39;;;;;;;20.47;18.37;;;18.50;1.00;;;;;;5085805;27;21143;-73
2021/07/24 04:51:05;;;;;;;20.67;18.70;;;18.50;1.00;;;;;;5086699;27;20407;-71
2021/07/24 04:53:33;;;;;;;20.10;18.07;;;18.60;1.00;;;;;;5083626;28;21024;-73
2021/07/24 04:56:02;;;;;;;20.27;18.33;;;18.60;1.00;;;;;;5083355;27;20460;-73
2021/07/24 04:58:30;;;;;;;20.50;18.03;;;18.60;1.00;;;;;;5088120;27;20939;-74
2021/07/24 05:00:57;;;;;;;21.07;19.17;;;18.70;1.00;;;;;;5085564;27;20453;-72
2021/07/24 05:03:25;;;;;;;21.00;19.07;;;18.70;1.00;;;;;;5086924;27;20477;-73
2021/07/24 05:05:53;;;;;;;18.97;17.17;;;18.80;1.00;;;;;;5085089;27;20438;-70
2021/07/24 05:08:21;;;;;;;19.97;17.90;;;18.80;1.00;;;;;;5088909;27;20984;-72
2021/07/24 05:10:50;;;;;;;19.60;17.67;;;18.90;1.00;;;;;;5078063;27;20445;-73
2021/07/24 05:13:16;;;;;;;19.70;17.80;;;18.90;1.00;;;;;;5079564;27;20451;-71
2021/07/24 05:15:43;;;;;;;19.30;17.53;;;19.00;1.00;;;;;;5085170;27;20459;-72
2021/07/24 05:18:12;;;;;;;19.87;18.00;;;19.10;1.00;;;;;;5082263;27;20564;-72
2021/07/24 05:20:40;;;;;;;18.60;16.77;;;19.10;1.00;;;;;;5083419;28;20469;-72
2021/07/24 05:23:07;;;;;;;18.83;17.07;;;19.20;1.00;;;;;;5083722;27;20845;-72
2021/07/24 05:25:34;;;;;;;19.10;17.10;;;19.20;1.00;;;;;;5084286;27;20440;-71
2021/07/24 05:28:01;;;;;;;18.77;16.87;;;19.30;1.00;;;;;;5081837;27;20454;-74
2021/07/24 05:30:28;;;;;;;20.60;17.73;;;19.40;1.00;;;;;;5084136;27;20446;-71
2021/07/24 05:32:54;;;;;;;17.93;16.23;;;19.50;1.00;;;;;;5082226;27;20864;-71
2021/07/24 05:35:21;;;;;;;19.83;17.83;;;19.60;1.00;;;;;;5085947;27;20468;-73
2021/07/24 05:37:49;;;;;;;19.83;17.93;;;19.60;1.00;;;;;;5086538;27;20457;-72
2021/07/24 05:40:16;;;;;;;19.03;17.23;;;19.70;1.00;;;;;;5084011;27;20453;-74
2021/07/24 05:42:43;;;;;;;18.83;17.13;;;19.70;1.00;;;;;;5087892;27;20462;-72
2021/07/24 05:45:10;;;;;;;19.30;17.33;;;19.70;1.00;;;;;;5089993;28;20913;-74
2021/07/24 05:47:37;;;;;;;19.80;17.63;;;19.80;1.00;;;;;;5088228;27;21492;-72
2021/07/24 05:50:05;;;;;;;20.20;17.80;;;19.90;1.00;;;;;;5086215;27;20502;-72
2021/07/24 05:52:31;;;;;;;19.07;17.27;;;20.00;1.00;;;;;;5086033;28;20867;-72
2021/07/24 05:54:59;;;;;;;19.23;17.43;;;20.10;1.00;;;;;;5093573;27;20451;-73
2021/07/24 05:57:26;;;;;;;19.07;17.03;;;20.20;1.00;;;;;;5090885;27;20482;-74
2021/07/24 05:59:53;;;;;;;19.73;17.80;;;20.20;1.00;;;;;;5088224;27;20512;-74
2021/07/24 06:02:19;;;;;;;18.77;17.03;;;20.40;1.00;;;;;;5095788;28;20463;-73
2021/07/24 06:04:47;;;;;;;20.03;17.90;;;20.40;1.00;;;;;;5093075;27;24301;-73
2021/07/24 06:07:14;;;;;;;19.40;17.50;;;20.50;1.00;;;;;;5088260;27;20954;-73
2021/07/24 06:09:40;;;;;;;18.20;16.60;;;20.60;1.00;;;;;;5089723;27;20995;-73
2021/07/24 06:12:09;;;;;;;18.83;17.03;;;20.70;1.00;;;;;;5096752;27;20582;-74
2021/07/24 06:14:36;;;;;;;18.40;16.40;;;20.80;1.00;;;;;;5096257;28;20454;-72
2021/07/24 06:17:03;;;;;;;16.73;15.10;;;21.00;1.00;;;;;;5093065;27;21191;-73
2021/07/24 06:19:30;;;;;;;18.10;16.30;;;21.00;1.00;;;;;;5098541;27;20442;-74
2021/07/24 06:21:56;;;;;;;17.10;15.40;;;21.10;1.00;;;;;;5098173;27;20437;-74
2021/07/24 06:24:23;;;;;;;17.97;16.37;;;21.30;1.00;;;;;;5092520;27;20448;-74
2021/07/24 06:26:50;;;;;;;18.27;16.63;;;21.40;1.00;;;;;;5097100;28;20462;-75
2021/07/24 06:29:18;;;;;;;17.53;15.97;;;21.40;1.00;;;;;;5091352;27;21043;-72
2021/07/24 06:31:44;;;;;;;18.50;16.70;;;21.50;1.00;;;;;;5100240;28;20468;-74
2021/07/24 06:34:11;;;;;;;18.77;16.93;;;21.60;1.00;;;;;;5095545;27;20458;-75
2021/07/24 06:36:39;;;;;;;17.77;15.70;;;21.70;1.00;;;;;;5093832;27;20449;-75
2021/07/24 06:39:05;;;;;;;18.20;16.50;;;21.80;1.00;;;;;;5098076;27;20476;-76
2021/07/24 06:41:34;;;;;;;17.73;15.87;;;22.00;1.00;;;;;;5089024;27;20457;-75
2021/07/24 06:44:02;;;;;;;18.20;16.50;;;22.10;1.00;;;;;;5098306;28;20420;-76
2021/07/24 06:46:30;;;;;;;18.00;16.30;;;22.20;1.00;;;;;;5093753;27;20470;-75
2021/07/24 06:48:57;;;;;;;19.13;17.00;;;22.30;1.00;;;;;;5095486;27;20955;-75
2021/07/24 06:51:23;;;;;;;19.17;16.23;;;22.40;1.00;;;;;;5093521;27;20525;-75
2021/07/24 06:53:50;;;;;;;16.60;15.20;;;22.60;1.00;;;;;;5092861;27;20402;-76
2021/07/24 06:56:16;;;;;;;16.73;15.23;;;22.70;1.00;;;;;;5096152;27;20454;-73
2021/07/24 06:58:43;;;;;;;17.60;16.00;;;22.80;1.00;;;;;;5088486;27;20446;-74
2021/07/24 07:01:10;;;;;;;16.77;15.27;;;22.90;1.00;;;;;;5097860;27;20452;-75
2021/07/24 07:03:38;;;;;;;18.10;16.37;;;23.00;1.00;;;;;;5091484;27;20434;-75
2021/07/24 07:06:06;;;;;;;17.70;16.10;;;23.10;1.00;;;;;;5092287;27;20823;-74
2021/07/24 07:08:33;;;;;;;16.07;14.67;;;23.20;1.00;;;;;;5091412;27;20768;-71
2021/07/24 07:11:03;;;;;;;17.50;15.13;;;23.20;1.00;;;;;;5090301;27;20440;-71
2021/07/24 07:13:30;;;;;;;16.93;15.30;;;23.30;1.00;;;;;;5097787;27;20503;-70
2021/07/24 07:15:57;;;;;;;17.83;16.13;;;23.40;1.00;;;;;;5089610;27;20474;-72
2021/07/24 07:18:23;;;;;;;17.80;15.93;;;23.60;1.00;;;;;;5094395;27;20519;-72
2021/07/24 07:20:52;;;;;;;16.53;15.00;;;23.70;1.00;;;;;;5091822;27;20453;-71
2021/07/24 07:23:19;;;;;;;17.33;15.73;;;23.80;1.00;;;;;;5091214;27;21245;-71
2021/07/24 07:25:45;;;;;;;16.40;14.87;;;24.00;1.00;;;;;;5094334;28;20995;-71
2021/07/24 07:28:12;;;;;;;18.00;16.27;;;24.20;1.00;;;;;;5088692;27;20460;-73
2021/07/24 07:30:39;;;;;;;17.97;16.17;;;24.40;1.00;;;;;;5100413;28;21259;-73
2021/07/24 07:33:06;;;;;;;19.17;16.43;;;24.50;1.00;;;;;;5095281;27;20459;-72
2021/07/24 07:35:33;;;;;;;27.47;24.70;;;24.60;1.00;;;;;;5095740;27;20421;-71
2021/07/24 07:38:01;;;;;;;17.30;15.70;;;24.70;1.00;;;;;;5088253;27;20430;-71
2021/07/24 07:40:27;;;;;;;16.00;14.43;;;24.70;1.00;;;;;;5096420;27;20530;-72
2021/07/24 07:42:54;;;;;;;18.17;16.27;;;24.70;1.00;;;;;;5090988;27;21325;-71
2021/07/24 07:45:21;;;;;;;16.23;14.73;;;24.90;1.00;;;;;;5090015;28;20460;-73
2021/07/24 07:47:47;;;;;;;15.30;13.83;;;25.10;1.00;;;;;;5091932;27;20457;-70
2021/07/24 07:50:14;;;;;;;16.17;14.83;;;25.20;1.00;;;;;;5087572;27;20454;-72
2021/07/24 07:52:41;;;;;;;15.07;13.77;;;25.30;1.00;;;;;;5083301;27;21092;-74
2021/07/24 07:55:10;;;;;;;18.30;15.17;;;25.40;1.00;;;;;;5089758;28;21232;-71
2021/07/24 07:57:39;;;;;;;15.73;14.23;;;25.50;1.00;;;;;;5087511;27;20438;-71
2021/07/24 08:00:07;;;;;;;16.67;14.97;;;25.70;1.00;;;;;;5087696;27;20458;-72
2021/07/24 08:02:34;;;;;;;16.33;14.90;;;25.90;1.00;;;;;;5090226;27;20461;-72
2021/07/24 08:05:01;;;;;;;16.97;15.33;;;26.00;1.00;;;;;;5082555;27;20447;-74
2021/07/24 08:07:27;;;;;;;16.70;15.00;;;26.10;1.00;;;;;;5088069;27;20934;-73
2021/07/24 08:09:56;;;;;;;16.67;15.10;;;26.20;1.00;;;;;;5086583;27;20462;-73
2021/07/24 08:12:25;;;;;;;17.17;15.57;;;26.40;1.00;;;;;;5092759;28;20440;-74
2021/07/24 08:14:52;;;;;;;16.07;14.67;;;26.50;1.00;;;;;;5090994;27;20890;-73
2021/07/24 08:17:20;;;;;;;17.00;15.40;;;26.70;1.00;;;;;;5084673;27;20511;-75
2021/07/24 08:19:47;;;;;;;14.93;13.50;;;26.90;1.00;;;;;;5092831;28;20638;-74
2021/07/24 08:22:14;;;;;;;16.40;14.80;;;27.10;1.00;;;;;;5091634;27;20570;-73
2021/07/24 08:24:41;;;;;;;17.43;15.73;;;27.00;1.00;;;;;;5093722;27;20598;-73
2021/07/24 08:27:07;;;;;;;16.50;15.00;;;26.90;1.00;;;;;;5087105;27;20440;-74
2021/07/24 08:29:35;;;;;;;16.03;14.63;;;26.90;1.00;;;;;;5084147;27;20453;-73
2021/07/24 08:32:02;;;;;;;16.77;15.17;;;27.10;1.00;;;;;;5094504;27;20413;-72
2021/07/24 08:34:29;;;;;;;15.90;14.40;;;27.20;1.00;;;;;;5090258;27;21285;-74
2021/07/24 08:36:55;;;;;;;17.10;15.30;;;27.40;1.00;;;;;;5089914;27;20539;-73
2021/07/24 08:39:22;;;;;;;15.57;14.27;;;27.50;1.00;;;;;;5088061;27;20472;-73
2021/07/24 08:41:49;;;;;;;16.67;14.97;;;27.40;1.00;;;;;;5087603;27;20874;-72
2021/07/24 08:44:16;;;;;;;16.17;14.57;;;27.10;1.00;;;;;;5090064;27;21031;-76
2021/07/24 08:46:44;;;;;;;16.40;14.93;;;27.10;1.00;;;;;;5087024;27;20489;-74
2021/07/24 08:49:11;;;;;;;15.10;13.70;;;27.20;1.00;;;;;;5088625;28;20568;-75
2021/07/24 08:51:38;;;;;;;16.30;14.70;;;27.30;1.00;;;;;;5086951;27;20992;-74
2021/07/24 08:54:06;;;;;;;15.30;13.80;;;27.40;1.00;;;;;;5084166;27;20443;-74
2021/07/24 08:56:36;;;;;;;15.73;14.33;;;27.40;1.00;;;;;;5088535;27;20438;-74
2021/07/24 08:59:04;;;;;;;15.50;14.10;;;27.50;1.00;;;;;;5088731;27;20441;-75
2021/07/24 09:01:34;;;;;;;16.57;15.10;;;27.70;1.00;;;;;;5090317;28;20441;-74
2021/07/24 09:04:05;;;;;;;15.60;14.10;;;27.70;1.00;;;;;;5089627;27;20454;-72
2021/07/24 09:06:32;;;;;;;15.70;14.20;;;27.90;1.00;;;;;;5091953;27;20820;-74
2021/07/24 09:08:59;;;;;;;16.30;14.80;;;28.00;1.00;;;;;;5088871;27;20425;-73
2021/07/24 09:11:26;;;;;;;15.30;13.80;;;28.00;1.00;;;;;;5090179;27;20444;-75
2021/07/24 09:13:52;;;;;;;15.00;13.70;;;28.10;1.00;;;;;;5086363;27;20490;-72
2021/07/24 09:16:19;;;;;;;14.93;13.40;;;28.10;1.00;;;;;;5088545;27;20434;-72
2021/07/24 09:18:48;;;;;;;15.33;13.93;;;28.30;1.00;;;;;;5095074;27;20494;-74
2021/07/24 09:21:17;;;;;;;14.03;12.83;;;28.40;1.00;;;;;;5094450;27;20454;-72
2021/07/24 09:23:47;;;;;;;15.93;14.50;;;28.50;1.00;;;;;;5098269;27;20489;-74
2021/07/24 09:26:30;;;;;;;15.50;14.10;;;28.40;1.00;;;;;;5096026;27;20443;-73
2021/07/24 09:29:10;;;;;;;15.50;14.00;;;28.70;1.00;;;;;;5095589;27;20425;-73
2021/07/24 09:31:39;;;;;;;14.97;13.57;;;29.00;1.00;;;;;;5093669;27;20727;-74
2021/07/24 09:34:06;;;;;;;16.30;14.70;;;29.20;1.00;;;;;;5092558;27;20455;-73
2021/07/24 09:36:35;;;;;;;16.30;14.80;;;29.30;1.00;;;;;;5094452;27;20451;-73
2021/07/24 09:39:10;;;;;;;16.63;15.00;;;29.60;1.00;;;;;;5109934;22;20965;-78
2021/07/24 09:41:38;;;;;;;14.50;13.30;;;30.30;1.00;;;;;;5100620;27;20470;-78
2021/07/24 09:44:05;;;;;;;14.60;13.30;;;31.30;1.00;;;;;;5097332;28;20470;-78
2021/07/24 09:46:32;;;;;;;16.13;14.63;;;32.30;1.00;;;;;;5101885;27;20532;-78
2021/07/24 09:49:11;;;;;;;14.40;13.20;;;33.20;1.00;;;;;;5096949;27;20958;-79
2021/07/24 09:51:40;;;;;;;14.97;13.67;;;33.50;1.00;;;;;;5091677;27;20442;-79
2021/07/24 09:54:07;;;;;;;15.33;12.90;;;33.60;1.00;;;;;;5091931;27;20466;-79
2021/07/24 09:56:42;;;;;;;15.00;13.80;;;34.30;1.00;;;;;;5090393;27;20433;-79
2021/07/24 09:59:17;;;;;;;14.07;12.87;;;34.80;1.00;;;;;;5095788;27;20449;-79
2021/07/24 10:01:44;;;;;;;13.53;12.43;;;34.70;1.00;;;;;;5093528;27;20449;-78
2021/07/24 10:04:11;;;;;;;14.77;13.40;;;34.90;1.00;;;;;;5094294;28;21267;-79
2021/07/24 10:06:44;;;;;;;15.57;14.13;;;35.40;1.00;;;;;;5090450;27;20490;-78
2021/07/24 10:09:12;;;;;;;15.43;14.00;;;35.90;1.00;;;;;;5090792;27;20465;-77
2021/07/24 10:11:38;;;;;;;13.20;12.10;;;35.80;1.00;;;;;;5090529;27;20461;-77
2021/07/24 10:14:05;;;;;;;13.93;12.70;;;35.70;1.00;;;;;;5091002;27;20450;-78
2021/07/24 10:16:32;;;;;;;13.93;12.63;;;36.20;1.00;;;;;;5088487;27;20781;-77
2021/07/24 10:18:59;;;;;;;13.50;12.27;;;36.50;1.00;;;;;;5093446;27;20604;-78
2021/07/24 10:21:26;;;;;;;15.10;13.60;;;36.60;1.00;;;;;;5091825;27;20649;-78
2021/07/24 10:23:54;;;;;;;16.27;14.70;;;35.90;1.00;;;;;;5091580;27;20798;-78
2021/07/24 10:26:26;;;;;;;13.80;12.67;;;36.10;1.00;;;;;;5093365;27;20433;-78
2021/07/24 10:28:57;;;;;;;13.50;12.40;;;36.80;1.00;;;;;;5090529;27;20465;-78
2021/07/24 10:31:26;;;;;;;14.13;12.93;;;37.50;1.00;;;;;;5091344;27;20455;-78
2021/07/24 10:33:57;;;;;;;15.87;14.23;;;37.10;1.00;;;;;;5090522;27;20906;-78
2021/07/24 10:36:34;;;;;;;12.37;11.37;;;37.10;1.00;;;;;;5095313;27;20987;-80
2021/07/24 10:39:03;;;;;;;13.10;12.00;;;37.00;1.00;;;;;;5088868;28;20461;-78
2021/07/24 10:41:41;;;;;;;12.63;11.53;;;37.30;1.00;;;;;;5091078;27;20458;-78
2021/07/24 10:44:09;;;;;;;13.80;12.60;;;37.90;1.00;;;;;;5090870;27;20476;-78
2021/07/24 10:47:13;;;;;;;13.47;12.37;;;37.40;1.00;;;;;;5090769;27;20431;-78
2021/07/24 10:49:57;;;;;;;13.53;12.40;;;36.90;1.00;;;;;;5094257;27;20437;-77
2021/07/24 10:52:24;;;;;;;13.30;12.10;;;36.20;1.00;;;;;;5088268;27;20874;-78
2021/07/24 10:55:17;;;;;;;13.27;12.17;;;35.60;1.00;;;;;;5092740;27;20530;-78
2021/07/24 10:58:05;;;;;;;14.00;12.80;;;35.60;1.00;;;;;;5086391;27;20449;-79
2021/07/24 11:00:40;;;;;;;13.23;12.13;;;36.30;1.00;;;;;;5090583;27;20502;-78
2021/07/24 11:03:31;;;;;;;13.67;12.50;;;37.00;1.00;;;;;;5094160;27;21096;-78
2021/07/24 11:05:58;;;;;;;12.57;11.47;;;37.90;1.00;;;;;;5087188;27;20477;-78
2021/07/24 11:08:55;;;;;;;13.70;12.60;;;38.20;1.00;;;;;;5091845;27;20434;-79
2021/07/24 11:11:36;;;;;;;13.47;12.37;;;38.30;1.00;;;;;;5080002;27;20477;-79
2021/07/24 11:14:03;;;;;;;13.77;12.47;;;38.90;1.00;;;;;;5093358;28;20442;-78
2021/07/24 11:17:14;;;;;;;14.23;12.90;;;39.00;1.00;;;;;;5102293;27;20422;-79
2021/07/24 11:19:43;;;;;;;14.30;12.80;;;39.30;1.00;;;;;;5092219;28;20442;-79
2021/07/24 11:22:12;;;;;;;13.47;12.07;;;40.10;1.00;;;;;;5093320;27;20461;-80
2021/07/24 11:24:40;;;;;;;13.40;12.30;;;40.90;1.00;;;;;;5091894;27;20868;-79
2021/07/24 11:27:06;;;;;;;13.17;12.13;;;41.00;1.00;;;;;;5089677;27;21599;-78
2021/07/24 11:29:34;;;;;;;12.77;11.77;;;41.10;1.00;;;;;;5088727;27;20426;-80
2021/07/24 11:32:02;;;;;;;13.63;12.43;;;41.30;1.00;;;;;;5093188;27;20536;-79
2021/07/24 11:34:31;;;;;;;13.03;12.03;;;41.60;1.00;;;;;;5091147;27;20453;-79
2021/07/24 11:37:00;;;;;;;13.93;12.77;;;41.50;1.00;;;;;;5090246;28;20789;-79
2021/07/24 11:39:27;;;;;;;14.10;12.90;;;41.70;1.00;;;;;;5092423;27;20456;-79
2021/07/24 11:41:55;;;;;;;13.50;12.40;;;41.30;1.00;;;;;;5095483;27;20454;-81
2021/07/24 11:44:29;;;;;;;14.00;12.90;;;41.20;1.00;;;;;;5091599;27;21231;-80
2021/07/24 11:46:58;;;;;;;12.53;11.53;;;41.30;1.00;;;;;;5095619;27;20884;-80
2021/07/24 11:49:24;;;;;;;12.73;11.63;;;41.70;1.00;;;;;;5095240;28;20452;-80
2021/07/24 11:51:51;;;;;;;11.50;10.60;;;42.00;1.00;;;;;;5092702;27;21528;-80
2021/07/24 11:54:32;;;;;;;12.10;11.10;;;42.70;1.00;;;;;;5094888;27;20539;-80
2021/07/24 11:56:59;;;;;;;12.20;11.03;;;42.60;1.00;;;;;;5093084;27;20453;-79
2021/07/24 11:59:27;;;;;;;14.00;12.07;;;41.60;1.00;;;;;;5094749;27;20441;-80
2021/07/24 12:01:54;;;;;;;11.77;10.77;;;41.30;1.00;;;;;;5088362;27;20458;-79
2021/07/24 12:04:21;;;;;;;11.53;10.63;;;41.20;1.00;;;;;;5092558;27;21018;-80
2021/07/24 12:06:51;;;;;;;13.60;12.50;;;41.20;1.00;;;;;;5093544;27;21200;-79
2021/07/24 12:09:18;;;;;;;12.37;11.37;;;41.50;1.00;;;;;;5092655;27;20446;-80
2021/07/24 12:11:50;;;;;;;14.73;13.53;;;41.50;1.00;;;;;;5092563;28;20434;-80
2021/07/24 12:14:21;;;;;;;12.87;11.27;;;40.90;1.00;;;;;;5090982;27;20453;-80
2021/07/24 12:16:48;;;;;;;12.57;11.50;;;40.50;1.00;;;;;;5091607;27;20450;-80
2021/07/24 12:19:16;;;;;;;11.50;10.60;;;41.10;1.00;;;;;;5089292;27;20454;-80
2021/07/24 12:21:45;;;;;;;12.73;11.63;;;40.60;1.00;;;;;;5091032;27;20433;-80
2021/07/24 12:24:12;;;;;;;12.93;11.73;;;40.60;1.00;;;;;;5101674;27;20492;-80
2021/07/24 12:26:42;;;;;;;14.93;13.60;;;40.40;1.00;;;;;;5104735;27;20458;-81
2021/07/24 12:29:25;;;;;;;12.13;11.13;;;41.00;1.00;;;;;;5099511;28;20460;-80
2021/07/24 12:31:54;;;;;;;12.33;11.37;;;41.60;1.00;;;;;;5092247;27;21193;-80
2021/07/24 12:34:22;;;;;;;12.13;10.93;;;41.90;1.00;;;;;;5095764;28;20451;-80
2021/07/24 12:36:53;;;;;;;12.07;11.17;;;42.00;1.00;;;;;;5089957;27;20520;-80
2021/07/24 12:39:21;;;;;;;12.73;11.70;;;42.50;1.00;;;;;;5093703;27;20451;-80
2021/07/24 12:41:59;;;;;;;11.83;10.77;;;42.80;1.00;;;;;;5090635;27;20525;-80
2021/07/24 12:44:27;;;;;;;13.13;11.83;;;42.60;1.00;;;;;;5089022;27;20450;-80